Flight Track Log - Related Links

Times and Time Zones

All times are in EDT time to prevent confusion due to time zone crossing. See the CTL17 flight status page for this flight to view local times or setup timezone preferences in your user account.

Time Position Orientation Groundspeed Altitude Reporting Facility
EDT Latitude Longitude Course Direction KTS MPH feet Rate Location/Type
Mon 03:54:50 PM 42.6622 -83.4406 281° West 128 147 1,400  Level Cleveland Center
Mon 03:55:27 PM 42.6658 -83.4661 281° West 138 159 2,000 973 Climbing Cleveland Center
Mon 03:57:00 PM 42.7178 -83.4152 36° Northeast  Level FlightAware Approximate
Mon 04:04:00 PM 42.9865 -83.4618 321° Northwest  Level FlightAware Approximate
Mon 04:05:00 PM 43.0187 -83.4973 321° Northwest  Level FlightAware Approximate
Mon 04:06:00 PM 43.0508 -83.5328 321° Northwest  Level FlightAware Approximate
Mon 04:07:00 PM 43.0830 -83.5683 321° Northwest  Level FlightAware Approximate
Mon 04:08:00 PM 43.1151 -83.6039 321° Northwest  Level FlightAware Approximate
Mon 04:09:00 PM 43.1472 -83.6395 321° Northwest  Level FlightAware Approximate
Mon 04:10:00 PM 43.1793 -83.6751 321° Northwest  Level FlightAware Approximate
Mon 04:11:00 PM 43.2114 -83.7108 321° Northwest  Level FlightAware Approximate
Mon 04:12:00 PM 43.2425 -83.7481 318° Northwest  Level FlightAware Approximate
Mon 04:13:00 PM 43.2734 -83.7858 318° Northwest  Level FlightAware Approximate
Mon 04:14:00 PM 43.3042 -83.8235 318° Northwest  Level FlightAware Approximate
Mon 04:15:00 PM 43.3351 -83.8613 318° Northwest  Level FlightAware Approximate
Mon 04:16:00 PM 43.3659 -83.8991 318° Northwest  Level FlightAware Approximate
Mon 04:17:00 PM 43.3993 -83.9326 324° Northwest  Level FlightAware Approximate
Mon 04:18:00 PM 43.4327 -83.9660 324° Northwest  Level FlightAware Approximate
Mon 04:19:00 PM 43.4661 -83.9994 324° Northwest  Level FlightAware Approximate
Mon 04:20:00 PM 43.4995 -84.0329 324° Northwest  Level FlightAware Approximate
Mon 04:21:00 PM 43.5167 -84.0667 305° West  Level FlightAware Approximate
Mon 04:22:00 PM 43.5329 -84.0796 305° West  Level Estimated
Mon 04:23:00 PM 43.5329 -84.0796 305° West  Level Estimated
Mon 04:24:00 PM 43.5329 -84.0796 305° West  Level Estimated
Mon 04:25:00 PM 43.5329 -84.0796 305° West  Level Estimated
Mon 04:26:00 PM 43.5329 -84.0796 305° West  Level Estimated

Login

Don't have an account? Register now (free) for customized features, flight alerts, and more!